< < Back
Terminal Aerodrome Forecast


Current Version              Previous Versions:   1  2  3  4  5  6  7  8  9  

Terminal Aerodrome Forecast

512
FTUS44 KHUN 300524
TAFHSV
TAF
KHSV 300524Z 3006/3106 13005KT P6SM SCT090
     FM301400 19010KT P6SM SCT035 SCT050 SCT120
     FM302100 22007KT P6SM VCTS SCT035CB SCT050 SCT120
     FM310300 26005KT P6SM VCTS BKN035CB OVC050=



Latest METAR

873
SAUS80 KWBC 301200 RRA
MTRHSV
METAR KHSV 301153Z 13005KT 10SM FEW250 21/18 A3011 RMK AO2 SLP189
T02110183 10211 20200 52004 $


USA.gov is the U.S. government's official web portal to all federal, state and local government web resources and services.